createdAt,value
2023-04-17T00:02:19.342Z,66.86
2023-04-17T00:05:21.113Z,67.08
2023-04-17T00:08:22.709Z,67.34
2023-04-17T00:11:24.442Z,67.07
2023-04-17T00:14:25.985Z,66.68
2023-04-17T00:17:27.674Z,67.30
2023-04-17T00:20:29.478Z,67.30
2023-04-17T00:23:30.987Z,67.44
2023-04-17T00:26:32.651Z,67.51
2023-04-17T00:29:34.268Z,67.57
2023-04-17T00:32:35.994Z,67.63
2023-04-17T00:35:37.733Z,67.70
2023-04-17T00:38:39.833Z,67.87
2023-04-17T00:41:41.435Z,68.10
2023-04-17T00:44:42.978Z,67.92
2023-04-17T00:47:44.718Z,67.87
2023-04-17T00:50:46.311Z,67.95
2023-04-17T00:53:48.231Z,67.70
2023-04-17T00:56:51.198Z,67.22
2023-04-17T00:59:53.098Z,67.32
2023-04-17T01:02:57.200Z,67.41
2023-04-17T01:05:59.363Z,67.64
2023-04-17T01:09:01.319Z,68.07
2023-04-17T01:12:24.295Z,67.71
2023-04-17T01:15:26.116Z,68.09
2023-04-17T01:18:27.893Z,68.23
2023-04-17T01:21:29.698Z,68.09
2023-04-17T01:24:31.258Z,68.26
2023-04-17T01:27:32.871Z,68.39
2023-04-17T01:30:34.432Z,68.51
2023-04-17T01:33:36.061Z,68.38
2023-04-17T01:36:37.700Z,68.21
2023-04-17T01:39:39.223Z,68.02
2023-04-17T01:42:40.955Z,68.23
2023-04-17T01:45:42.586Z,68.54
2023-04-17T01:48:44.183Z,68.82
2023-04-17T01:51:45.837Z,69.18
2023-04-17T01:54:47.436Z,69.38
2023-04-17T01:57:49.916Z,69.35
2023-04-17T02:00:51.596Z,69.01
2023-04-17T02:03:53.215Z,68.84
2023-04-17T02:06:55.166Z,68.86
2023-04-17T02:09:56.672Z,69.04
2023-04-17T02:12:58.402Z,69.14
2023-04-17T02:15:59.918Z,69.10
2023-04-17T02:19:01.605Z,69.09
2023-04-17T02:22:03.192Z,69.20
2023-04-17T02:25:05.149Z,69.46
2023-04-17T02:28:06.800Z,69.23
2023-04-17T02:31:08.817Z,69.11
2023-04-17T02:34:10.608Z,69.08
2023-04-17T02:37:12.324Z,69.35
2023-04-17T02:40:14.932Z,69.32
2023-04-17T02:43:16.592Z,69.42
2023-04-17T02:46:18.215Z,69.35
2023-04-17T02:49:19.926Z,69.95
2023-04-17T02:52:22.042Z,69.94
2023-04-17T02:55:23.570Z,70.24
2023-04-17T02:58:25.253Z,70.67
2023-04-17T03:01:27.024Z,70.08
2023-04-17T03:04:28.575Z,70.59
2023-04-17T03:07:30.168Z,71.38
2023-04-17T03:10:31.888Z,70.82
2023-04-17T03:13:34.917Z,71.36
2023-04-17T03:16:36.654Z,70.78
2023-04-17T03:19:38.368Z,70.65
2023-04-17T03:22:39.944Z,70.83
2023-04-17T03:25:41.711Z,70.73
2023-04-17T03:28:43.228Z,70.64
2023-04-17T03:31:45.046Z,70.86
2023-04-17T03:34:47.168Z,70.97
2023-04-17T03:37:48.824Z,70.64
2023-04-17T03:40:50.522Z,70.48
2023-04-17T03:43:52.146Z,70.70
2023-04-17T03:46:53.814Z,70.94
2023-04-17T03:49:55.718Z,71.07
2023-04-17T03:52:57.535Z,70.83
2023-04-17T03:55:59.191Z,70.78
2023-04-17T03:59:00.761Z,70.67
2023-04-17T04:02:02.673Z,71.14
2023-04-17T04:05:04.784Z,70.92
2023-04-17T04:08:06.695Z,70.82
2023-04-17T04:11:08.288Z,70.93
2023-04-17T04:14:09.947Z,71.54
2023-04-17T04:17:11.503Z,71.50
2023-04-17T04:20:13.172Z,71.98
2023-04-17T04:23:15.044Z,72.19
2023-04-17T04:26:16.617Z,72.12
2023-04-17T04:29:18.317Z,72.41
2023-04-17T04:32:19.946Z,72.32
2023-04-17T04:35:21.774Z,72.11
2023-04-17T04:38:23.542Z,71.86
2023-04-17T04:41:26.281Z,71.98
2023-04-17T04:44:27.925Z,72.24
2023-04-17T04:47:29.456Z,71.91
2023-04-17T04:50:31.899Z,72.21
2023-04-17T04:53:33.575Z,72.01
2023-04-17T04:56:35.275Z,71.96
2023-04-17T04:59:38.949Z,71.75
2023-04-17T05:02:41.049Z,71.68
2023-04-17T05:05:42.982Z,71.82
2023-04-17T05:08:44.587Z,72.07
2023-04-17T05:11:46.143Z,72.17
2023-04-17T05:14:47.779Z,72.34
2023-04-17T05:17:49.412Z,71.89
2023-04-17T05:20:51.687Z,72.43
2023-04-17T05:23:53.786Z,72.49
2023-04-17T05:26:55.425Z,72.23
2023-04-17T05:29:56.964Z,72.33
2023-04-17T05:32:58.900Z,72.66
2023-04-17T05:36:00.631Z,72.65
2023-04-17T05:39:02.317Z,72.43
2023-04-17T05:42:04.224Z,72.35
2023-04-17T05:45:06.310Z,72.39
2023-04-17T05:48:07.968Z,72.13
2023-04-17T05:51:09.623Z,72.22
2023-04-17T05:54:11.274Z,72.11
2023-04-17T05:57:12.867Z,71.94
2023-04-17T06:00:15.128Z,71.91
2023-04-17T06:03:18.265Z,71.78
2023-04-17T06:06:20.506Z,71.76
2023-04-17T06:09:23.520Z,71.64
2023-04-17T06:12:27.288Z,71.54
2023-04-17T06:15:29.092Z,71.28
2023-04-17T06:18:30.763Z,71.35
2023-04-17T06:21:32.592Z,71.26
2023-04-17T06:24:34.599Z,71.04
2023-04-17T06:27:37.267Z,71.14
2023-04-17T06:30:39.286Z,71.28
2023-04-17T06:33:40.988Z,70.90
2023-04-17T06:36:42.661Z,70.85
2023-04-17T06:39:44.300Z,70.89
2023-04-17T06:42:46.001Z,70.96
2023-04-17T06:45:48.483Z,70.99
2023-04-17T06:48:50.158Z,70.86
2023-04-17T06:51:51.756Z,70.58
2023-04-17T06:54:56.681Z,70.39
2023-04-17T06:57:58.245Z,70.20
2023-04-17T07:00:59.816Z,69.49
2023-04-17T07:04:01.618Z,70.00
2023-04-17T07:07:03.461Z,70.42
2023-04-17T07:10:06.437Z,70.55
2023-04-17T07:13:08.008Z,70.59
2023-04-17T07:16:09.688Z,70.90
2023-04-17T07:19:11.660Z,71.26
2023-04-17T07:22:13.612Z,71.07
2023-04-17T07:25:15.605Z,71.06
2023-04-17T07:28:18.032Z,70.92
2023-04-17T07:31:19.842Z,71.01
2023-04-17T07:34:21.641Z,71.26
2023-04-17T07:37:23.235Z,71.28
2023-04-17T07:40:25.181Z,71.41
2023-04-17T07:43:27.640Z,71.17
2023-04-17T07:46:29.344Z,71.19
2023-04-17T07:49:31.008Z,71.54
2023-04-17T07:52:32.720Z,71.26
2023-04-17T07:55:34.317Z,71.13
2023-04-17T07:58:36.052Z,71.24
2023-04-17T08:01:37.788Z,71.24
2023-04-17T08:04:39.778Z,71.13
2023-04-17T08:07:41.665Z,71.07
2023-04-17T08:10:43.353Z,71.49
2023-04-17T08:13:45.013Z,71.29
2023-04-17T08:16:47.493Z,71.21
2023-04-17T08:19:49.513Z,71.55
2023-04-17T08:22:51.130Z,71.42
2023-04-17T08:25:52.747Z,71.32
2023-04-17T08:28:54.461Z,71.50
2023-04-17T08:32:12.792Z,71.76
2023-04-17T08:35:16.757Z,71.74
2023-04-17T08:38:18.408Z,71.54
2023-04-17T08:41:22.073Z,71.33
2023-04-17T08:44:23.732Z,71.50
2023-04-17T08:47:25.482Z,71.46
2023-04-17T08:50:27.320Z,71.21
2023-04-17T08:53:29.052Z,71.24
2023-04-17T08:56:30.668Z,71.64
2023-04-17T08:59:32.743Z,71.50
2023-04-17T09:02:51.927Z,71.43
2023-04-17T09:05:57.224Z,71.30
2023-04-17T09:09:02.259Z,71.47
2023-04-17T09:12:08.885Z,71.21
2023-04-17T09:15:17.506Z,70.93
2023-04-17T09:18:28.023Z,70.67
2023-04-17T09:21:29.812Z,70.15
2023-04-17T09:24:35.416Z,69.85
2023-04-17T09:27:37.212Z,70.26
2023-04-17T09:30:40.440Z,70.23
2023-04-17T09:34:03.782Z,69.99
2023-04-17T09:37:05.475Z,70.25
2023-04-17T09:40:07.738Z,70.61
2023-04-17T09:43:10.292Z,70.31
2023-04-17T09:46:12.815Z,70.47
2023-04-17T09:49:38.648Z,70.69
2023-04-17T09:52:40.724Z,70.46
2023-04-17T09:55:42.634Z,70.20
2023-04-17T09:58:44.618Z,70.55
2023-04-17T10:01:46.304Z,70.77
2023-04-17T10:04:48.128Z,70.67
2023-04-17T10:07:49.942Z,70.61
2023-04-17T10:10:51.999Z,70.70
2023-04-17T10:14:04.495Z,70.62
2023-04-17T10:17:26.674Z,70.65
2023-04-17T10:20:28.625Z,70.58
2023-04-17T10:23:32.352Z,70.62
2023-04-17T10:26:34.616Z,70.12
2023-04-17T10:29:55.756Z,70.22
2023-04-17T10:33:13.058Z,70.68
2023-04-17T10:36:40.444Z,70.80
2023-04-17T10:39:50.224Z,70.49
2023-04-17T10:43:10.456Z,70.65
2023-04-17T10:46:13.279Z,70.76
2023-04-17T10:49:15.266Z,71.08
2023-04-17T10:52:32.231Z,70.88
2023-04-17T10:55:34.005Z,70.75
2023-04-17T10:58:39.878Z,70.66
2023-04-17T11:01:47.736Z,70.68
2023-04-17T11:05:06.550Z,70.66
2023-04-17T11:08:09.940Z,70.44
2023-04-17T11:11:11.609Z,70.39
2023-04-17T11:14:15.270Z,70.30
2023-04-17T11:17:17.217Z,70.37
2023-04-17T11:20:23.798Z,70.46
2023-04-17T11:23:30.296Z,70.68
2023-04-17T11:26:31.904Z,70.59
2023-04-17T11:29:33.664Z,70.58
2023-04-17T11:32:38.308Z,70.40
2023-04-17T11:35:41.811Z,70.47
2023-04-17T11:38:47.723Z,70.81
2023-04-17T11:41:51.415Z,70.78
2023-04-17T11:44:53.105Z,70.88
2023-04-17T11:47:54.865Z,71.07
2023-04-17T11:51:04.007Z,71.16
2023-04-17T11:54:05.844Z,71.20
2023-04-17T11:57:12.801Z,71.22
2023-04-17T12:00:14.951Z,71.27
2023-04-17T12:03:36.212Z,71.39
2023-04-17T12:06:38.219Z,70.91
2023-04-17T12:09:40.146Z,71.49
2023-04-17T12:12:41.753Z,71.77
2023-04-17T12:15:43.675Z,71.77
2023-04-17T12:18:45.336Z,71.93
2023-04-17T12:21:47.041Z,71.84
2023-04-17T12:24:48.793Z,72.01
2023-04-17T12:27:50.599Z,72.08
2023-04-17T12:30:52.338Z,72.17
2023-04-17T12:33:53.940Z,72.14
2023-04-17T12:36:55.693Z,72.38
2023-04-17T12:39:57.520Z,72.45
2023-04-17T12:42:59.140Z,72.44
2023-04-17T12:46:00.865Z,72.45
2023-04-17T12:49:02.696Z,72.45
2023-04-17T12:52:04.407Z,72.52
2023-04-17T12:55:06.558Z,72.76
2023-04-17T12:58:08.860Z,72.76
2023-04-17T13:01:10.652Z,72.51
2023-04-17T13:04:12.729Z,72.84
2023-04-17T13:07:14.807Z,72.87
2023-04-17T13:10:16.562Z,72.86
2023-04-17T13:13:18.221Z,72.80
2023-04-17T13:16:19.856Z,72.60
2023-04-17T13:19:21.461Z,72.61
2023-04-17T13:22:23.160Z,72.70
2023-04-17T13:25:25.018Z,72.83
2023-04-17T13:28:26.707Z,72.79
2023-04-17T13:31:28.548Z,72.38
2023-04-17T13:34:30.219Z,72.63
2023-04-17T13:37:31.882Z,72.76
2023-04-17T13:40:33.645Z,72.97
2023-04-17T13:43:35.245Z,73.08
2023-04-17T13:46:37.128Z,73.12
2023-04-17T13:49:38.881Z,72.84
2023-04-17T13:52:40.621Z,72.96
2023-04-17T13:55:42.317Z,72.94
2023-04-17T13:58:43.962Z,72.58
2023-04-17T14:01:45.718Z,72.82
2023-04-17T14:04:47.519Z,72.90
2023-04-17T14:07:49.277Z,73.18
2023-04-17T14:10:50.893Z,73.22
2023-04-17T14:13:52.457Z,73.38
2023-04-17T14:16:54.158Z,73.45
2023-04-17T14:19:55.816Z,73.36
2023-04-17T14:22:57.527Z,73.38
2023-04-17T14:25:59.141Z,73.47
2023-04-17T14:29:00.783Z,73.75
2023-04-17T14:32:02.616Z,73.29
2023-04-17T14:35:05.130Z,73.42
2023-04-17T14:38:07.392Z,73.61
2023-04-17T14:41:09.088Z,73.71
2023-04-17T14:44:10.896Z,73.50
2023-04-17T14:47:12.688Z,73.75
2023-04-17T14:50:14.509Z,73.68
2023-04-17T14:53:16.291Z,73.74
2023-04-17T14:56:18.262Z,73.61
2023-04-17T14:59:20.358Z,73.87
2023-04-17T15:02:22.209Z,73.47
2023-04-17T15:05:24.164Z,74.02
2023-04-17T15:08:25.820Z,74.04
2023-04-17T15:11:27.573Z,73.79
2023-04-17T15:14:29.225Z,73.87
2023-04-17T15:17:30.956Z,74.11
2023-04-17T15:20:33.695Z,74.26
2023-04-17T15:23:37.717Z,74.18
2023-04-17T15:26:39.394Z,74.37
2023-04-17T15:29:41.587Z,74.49
2023-04-17T15:32:44.058Z,74.54
2023-04-17T15:35:45.873Z,74.63
2023-04-17T15:38:47.535Z,74.57
2023-04-17T15:41:49.278Z,74.34
2023-04-17T15:44:51.015Z,73.82
2023-04-17T15:47:53.166Z,74.49
2023-04-17T15:50:55.378Z,74.55
2023-04-17T15:53:57.127Z,74.47
2023-04-17T15:56:58.988Z,74.69
2023-04-17T16:00:00.622Z,74.64
2023-04-17T16:03:02.473Z,74.44
2023-04-17T16:06:04.820Z,74.67
2023-04-17T16:09:06.541Z,74.78
2023-04-17T16:12:10.041Z,74.84
2023-04-17T16:15:12.815Z,74.58
2023-04-17T16:18:14.479Z,74.50
2023-04-17T16:21:16.090Z,74.70
2023-04-17T16:24:17.759Z,74.83
2023-04-17T16:27:19.576Z,74.82
2023-04-17T16:30:21.846Z,74.93
2023-04-17T16:33:23.482Z,74.86
2023-04-17T16:36:25.206Z,75.12
2023-04-17T16:39:26.953Z,75.01
2023-04-17T16:42:28.728Z,74.98
2023-04-17T16:45:30.499Z,75.03
2023-04-17T16:48:32.372Z,74.99
2023-04-17T16:51:34.240Z,75.21
2023-04-17T16:54:35.963Z,75.17
2023-04-17T16:57:37.702Z,74.59
2023-04-17T17:00:39.457Z,74.88
2023-04-17T17:03:41.563Z,75.38
2023-04-17T17:06:43.443Z,75.39
2023-04-17T17:09:45.250Z,75.28
2023-04-17T17:12:46.902Z,75.38
2023-04-17T17:15:48.949Z,75.72
2023-04-17T17:18:50.833Z,75.75
2023-04-17T17:21:52.670Z,75.79
2023-04-17T17:24:54.581Z,75.74
2023-04-17T17:27:56.325Z,75.71
2023-04-17T17:31:08.313Z,75.88
2023-04-17T17:34:25.568Z,75.77
2023-04-17T17:37:28.808Z,75.61
2023-04-17T17:40:30.450Z,75.68
2023-04-17T17:43:32.097Z,75.22
2023-04-17T17:46:33.770Z,75.44
2023-04-17T17:49:35.466Z,75.73
2023-04-17T17:52:37.158Z,75.95
2023-04-17T17:55:39.577Z,75.89
2023-04-17T17:58:41.187Z,75.80
2023-04-17T18:01:43.026Z,75.90
2023-04-17T18:04:45.065Z,76.01
2023-04-17T18:07:47.259Z,75.87
2023-04-17T18:10:48.885Z,75.81
2023-04-17T18:13:51.269Z,76.10
2023-04-17T18:16:52.965Z,76.18
2023-04-17T18:19:54.732Z,76.13
2023-04-17T18:22:56.401Z,75.93
2023-04-17T18:26:02.603Z,76.18
2023-04-17T18:29:04.558Z,76.19
2023-04-17T18:32:06.324Z,76.20
2023-04-17T18:35:08.590Z,76.23
2023-04-17T18:38:10.357Z,76.44
2023-04-17T18:41:12.063Z,76.17
2023-04-17T18:44:13.988Z,76.12
2023-04-17T18:47:15.714Z,76.32
2023-04-17T18:50:17.672Z,76.23
2023-04-17T18:53:19.536Z,76.11
2023-04-17T18:56:21.466Z,76.17
2023-04-17T18:59:23.246Z,76.40
2023-04-17T19:02:25.131Z,76.46
2023-04-17T19:05:26.923Z,76.52
2023-04-17T19:08:28.863Z,76.58
2023-04-17T19:11:31.262Z,76.65
2023-04-17T19:14:33.026Z,76.55
2023-04-17T19:17:35.068Z,76.52
2023-04-17T19:20:37.208Z,76.60
2023-04-17T19:23:38.834Z,76.43
2023-04-17T19:26:40.687Z,76.12
2023-04-17T19:29:42.948Z,76.59
2023-04-17T19:32:44.724Z,76.70
2023-04-17T19:35:46.558Z,76.86
2023-04-17T19:38:48.639Z,76.87
2023-04-17T19:41:50.641Z,76.89
2023-04-17T19:44:52.884Z,76.82
2023-04-17T19:47:54.894Z,76.71
2023-04-17T19:50:56.822Z,76.71
2023-04-17T19:53:58.880Z,76.65
2023-04-17T19:57:00.770Z,76.75
2023-04-17T20:00:02.681Z,76.92
2023-04-17T20:03:04.457Z,76.91
2023-04-17T20:06:06.383Z,76.38
2023-04-17T20:09:08.395Z,76.83
2023-04-17T20:12:10.142Z,76.87
2023-04-17T20:15:11.896Z,77.02
2023-04-17T20:18:13.647Z,76.88
2023-04-17T20:21:15.288Z,76.86
2023-04-17T20:24:16.986Z,76.88
2023-04-17T20:27:18.679Z,77.06
2023-04-17T20:30:21.260Z,76.91
2023-04-17T20:33:23.084Z,77.18
2023-04-17T20:36:24.838Z,77.08
2023-04-17T20:39:26.502Z,77.02
2023-04-17T20:42:28.105Z,77.06
2023-04-17T20:45:29.822Z,77.27
2023-04-17T20:48:31.552Z,77.18
2023-04-17T20:51:33.191Z,77.09
2023-04-17T20:54:34.960Z,77.05
2023-04-17T20:57:36.554Z,77.07
2023-04-17T21:00:44.334Z,76.96
2023-04-17T21:03:49.369Z,77.12
2023-04-17T21:06:51.245Z,77.20
2023-04-17T21:09:53.008Z,77.15
2023-04-17T21:12:54.813Z,77.08
2023-04-17T21:15:56.481Z,77.13
2023-04-17T21:18:58.160Z,77.04
2023-04-17T21:21:59.766Z,77.16
2023-04-17T21:25:01.497Z,77.08
2023-04-17T21:28:03.364Z,77.11
2023-04-17T21:31:05.047Z,77.01
2023-04-17T21:34:07.172Z,76.99
2023-04-17T21:37:08.857Z,77.13
2023-04-17T21:40:10.903Z,77.08
2023-04-17T21:43:15.516Z,77.32
2023-04-17T21:46:17.315Z,77.19
2023-04-17T21:49:20.216Z,77.04
2023-04-17T21:52:21.785Z,77.26
2023-04-17T21:55:23.489Z,77.19
2023-04-17T21:58:25.377Z,77.19
2023-04-17T22:01:27.296Z,77.18
2023-04-17T22:04:29.108Z,77.38
2023-04-17T22:07:34.055Z,77.37
2023-04-17T22:10:37.866Z,77.42
2023-04-17T22:13:39.546Z,77.55
2023-04-17T22:16:41.185Z,77.26
2023-04-17T22:19:42.795Z,77.42
2023-04-17T22:23:22.395Z,77.43
2023-04-17T22:27:01.944Z,77.42
2023-04-17T22:30:41.142Z,77.49
2023-04-17T22:34:20.750Z,77.59
2023-04-17T22:38:00.211Z,77.71
2023-04-17T22:41:39.713Z,77.70
2023-04-17T22:45:19.175Z,77.68
2023-04-17T22:48:58.633Z,77.83
2023-04-17T22:52:38.297Z,77.72
2023-04-17T22:56:17.673Z,77.91
2023-04-17T22:59:57.647Z,77.79
2023-04-17T23:03:37.216Z,77.92
2023-04-17T23:07:17.070Z,77.88
2023-04-17T23:10:19.979Z,77.75
2023-04-17T23:13:21.630Z,77.59
2023-04-17T23:16:23.234Z,77.78
2023-04-17T23:19:24.899Z,77.67
2023-04-17T23:22:26.687Z,77.82
2023-04-17T23:25:28.361Z,77.79
2023-04-17T23:28:30.250Z,77.63
2023-04-17T23:31:31.962Z,77.76
2023-04-17T23:34:33.842Z,77.73
2023-04-17T23:37:35.739Z,77.82
2023-04-17T23:40:37.461Z,77.60
2023-04-17T23:43:39.157Z,77.89
2023-04-17T23:46:40.922Z,77.85
2023-04-17T23:49:42.646Z,78.05
2023-04-17T23:52:44.522Z,77.86
2023-04-17T23:55:46.253Z,77.65
2023-04-17T23:58:48.076Z,77.83
